Time;durP1;ratioP1;P1;durP2;ratioP2;P2;SDS_P1;SDS_P2;PMS_P1;PMS_P2;Temp;Humidity;BMP_temperature;BMP_pressure;BME280_temperature;BME280_humidity;BME280_pressure;Samples;Min_cycle;Max_cycle;Signal;HPM_P1;HPM_P2
2023/09/07 00:00:27;;;;;;;1.90;1.65;;;;;;;;;;5054307;28;20072;-33
2023/09/07 00:02:54;;;;;;;1.90;1.70;;;22.30;86.90;;;;;;5052985;28;20132;-31
2023/09/07 00:05:21;;;;;;;2.50;2.00;;;23.10;75.70;;;;;;5053168;28;20502;-32
2023/09/07 00:07:47;;;;;;;2.30;1.70;;;23.40;87.40;;;;;;5053072;28;20133;-31
2023/09/07 00:10:14;;;;;;;2.50;1.80;;;22.50;87.20;;;;;;5052943;28;20056;-30
2023/09/07 00:12:42;;;;;;;2.47;1.83;;;23.00;83.80;;;;;;5052640;28;20537;-31
2023/09/07 00:15:11;;;;;;;1.88;1.67;;;22.40;70.80;;;;;;5054005;28;20049;-31
2023/09/07 00:17:38;;;;;;;2.90;1.73;;;22.20;87.40;;;;;;5064458;28;20056;-30
2023/09/07 00:20:10;;;;;;;2.45;1.85;;;23.00;87.90;;;;;;5072870;28;20127;-30
2023/09/07 00:22:36;;;;;;;1.85;1.65;;;22.90;87.10;;;;;;5072647;28;20148;-30
2023/09/07 00:25:06;;;;;;;2.28;1.67;;;;;;;;;;5072005;28;20549;-32
2023/09/07 00:27:33;;;;;;;2.00;1.80;;;22.50;86.80;;;;;;5072772;28;20082;-30
2023/09/07 00:30:01;;;;;;;2.20;1.75;;;21.30;79.70;;;;;;5072661;28;20127;-31
2023/09/07 00:32:27;;;;;;;2.13;1.90;;;22.00;78.20;;;;;;5053651;28;20045;-33
2023/09/07 00:34:54;;;;;;;1.98;1.70;;;22.00;86.80;;;;;;5052738;28;20128;-32
2023/09/07 00:37:21;;;;;;;2.92;2.25;;;22.20;86.60;;;;;;5064723;28;20132;-31
2023/09/07 00:39:48;;;;;;;2.00;1.80;;;;;;;;;;5072169;28;20128;-32
2023/09/07 00:42:15;;;;;;;2.42;1.83;;;22.30;87.40;;;;;;5072446;28;20045;-31
2023/09/07 00:44:42;;;;;;;2.42;1.90;;;;;;;;;;5072297;28;20509;-30
2023/09/07 00:47:10;;;;;;;2.25;1.88;;;22.60;87.50;;;;;;5068512;28;20143;-30
2023/09/07 00:49:36;;;;;;;2.22;1.73;;;22.60;87.00;;;;;;5052345;28;20188;-31
2023/09/07 00:52:04;;;;;;;2.58;1.90;;;;;;;;;;5052147;28;20135;-39
2023/09/07 00:54:31;;;;;;;2.67;1.90;;;21.80;81.50;;;;;;5051696;28;20134;-33
2023/09/07 00:56:57;;;;;;;1.98;1.60;;;21.20;85.90;;;;;;5052190;28;20045;-30
2023/09/07 00:59:24;;;;;;;2.28;1.50;;;21.50;74.30;;;;;;5052115;28;20581;-32
2023/09/07 01:01:51;;;;;;;2.53;1.83;;;;;;;;;;5051956;28;20087;-31
2023/09/07 01:04:19;;;;;;;2.10;1.80;;;22.30;70.50;;;;;;5052940;28;20120;-31
2023/09/07 01:06:47;;;;;;;2.15;1.60;;;;;;;;;;5069832;28;20127;-33
2023/09/07 01:09:17;;;;;;;2.20;1.85;;;21.50;85.80;;;;;;5072188;28;20052;-31
2023/09/07 01:11:44;;;;;;;3.13;2.20;;;22.20;86.40;;;;;;5070282;28;20101;-31
2023/09/07 01:14:11;;;;;;;1.98;1.77;;;;;;;;;;5071469;28;20128;-35
2023/09/07 01:16:39;;;;;;;2.50;1.90;;;;;;;;;;5071887;28;20052;-30
2023/09/07 01:19:06;;;;;;;2.10;1.80;;;22.00;86.30;;;;;;5071715;28;20052;-31
2023/09/07 01:21:35;;;;;;;2.33;1.95;;;22.30;70.40;;;;;;5067834;28;20147;-35
2023/09/07 01:24:02;;;;;;;3.63;2.05;;;22.30;86.40;;;;;;5051532;28;20073;-30
2023/09/07 01:26:28;;;;;;;3.28;1.77;;;21.30;85.80;;;;;;5051984;28;20053;-33
2023/09/07 01:28:56;;;;;;;2.80;1.80;;;22.30;73.50;;;;;;5051785;28;20132;-35
2023/09/07 01:31:22;;;;;;;1.90;1.70;;;21.60;86.00;;;;;;5051677;28;20052;-31
2023/09/07 01:33:49;;;;;;;2.60;2.03;;;;;;;;;;5051380;28;20578;-34
2023/09/07 01:36:16;;;;;;;2.97;2.00;;;23.40;87.00;;;;;;5055815;28;20553;-30
2023/09/07 01:38:44;;;;;;;1.73;1.52;;;21.10;85.70;;;;;;5071812;28;20079;-38
2023/09/07 01:41:11;;;;;;;1.92;1.70;;;22.50;86.50;;;;;;5071606;28;20159;-39
2023/09/07 01:43:38;;;;;;;2.10;1.90;;;21.90;72.80;;;;;;5071252;28;20132;-38
2023/09/07 01:46:05;;;;;;;2.45;1.80;;;22.30;86.30;;;;;;5071549;28;20132;-38
2023/09/07 01:48:32;;;;;;;2.35;1.92;;;;;;;;;;5071568;28;20139;-35
2023/09/07 01:50:58;;;;;;;2.35;2.10;;;22.20;86.30;;;;;;5071676;28;20139;-40
2023/09/07 01:53:25;;;;;;;3.10;1.80;;;22.80;87.00;;;;;;5068179;28;20127;-38
2023/09/07 01:55:56;;;;;;;2.00;1.80;;;22.60;74.70;;;;;;5071429;28;20557;-36
2023/09/07 01:58:23;;;;;;;2.28;2.00;;;21.90;86.00;;;;;;5071811;28;20490;-40
2023/09/07 02:00:50;;;;;;;2.30;1.92;;;22.00;74.50;;;;;;5071443;28;20448;-38
2023/09/07 02:03:17;;;;;;;2.58;2.15;;;23.20;87.10;;;;;;5071134;28;20140;-35
2023/09/07 02:05:46;;;;;;;2.38;2.15;;;21.80;86.10;;;;;;5071806;28;20055;-40
2023/09/07 02:08:12;;;;;;;2.10;1.80;;;22.10;78.10;;;;;;5069829;28;20541;-36
2023/09/07 02:10:39;;;;;;;3.38;2.00;;;22.30;87.10;;;;;;5071347;28;20131;-36
2023/09/07 02:13:07;;;;;;;2.85;2.10;;;21.30;86.60;;;;;;5071207;28;20123;-37
2023/09/07 02:15:34;;;;;;;2.53;2.03;;;22.60;86.80;;;;;;5071396;28;20582;-39
2023/09/07 02:18:03;;;;;;;2.03;1.80;;;22.90;72.90;;;;;;5071447;28;20087;-36
2023/09/07 02:20:30;;;;;;;2.75;1.95;;;22.10;86.20;;;;;;5068225;28;20047;-39
2023/09/07 02:22:57;;;;;;;2.10;1.90;;;;;;;;;;5059584;28;20687;-37
2023/09/07 02:25:24;;;;;;;2.63;2.08;;;21.70;85.90;;;;;;5057650;28;20131;-40
2023/09/07 02:27:51;;;;;;;3.35;2.40;;;;;;;;;;5062136;28;20127;-35
2023/09/07 02:30:19;;;;;;;2.65;2.00;;;22.20;70.10;;;;;;5060327;28;20132;-39
2023/09/07 02:32:46;;;;;;;2.30;2.10;;;22.00;86.40;;;;;;5060266;28;20124;-38
2023/09/07 02:35:12;;;;;;;2.65;2.17;;;21.20;85.60;;;;;;5061643;28;20131;-40
2023/09/07 02:37:39;;;;;;;2.63;2.17;;;;;;;;;;5060300;28;20077;-37
2023/09/07 02:40:08;;;;;;;2.53;2.00;;;22.20;86.10;;;;;;5060830;28;20127;-39
2023/09/07 02:42:35;;;;;;;2.17;1.98;;;22.30;76.80;;;;;;5059609;28;20093;-37
2023/09/07 02:45:02;;;;;;;2.60;2.10;;;;;;;;;;5062097;28;20052;-37
2023/09/07 02:47:30;;;;;;;2.30;2.10;;;22.10;86.10;;;;;;5059919;28;20049;-37
2023/09/07 02:49:57;;;;;;;4.47;2.38;;;21.90;86.00;;;;;;5062733;28;20124;-40
2023/09/07 02:52:23;;;;;;;2.72;2.38;;;22.60;86.60;;;;;;5063655;28;20075;-37
2023/09/07 02:54:50;;;;;;;3.25;2.13;;;21.90;85.00;;;;;;5063978;28;20128;-36
2023/09/07 02:57:17;;;;;;;2.50;2.10;;;21.10;85.90;;;;;;5063267;28;20480;-40
2023/09/07 02:59:44;;;;;;;2.60;2.15;;;;;;;;;;5062914;28;20049;-36
2023/09/07 03:02:11;;;;;;;2.60;2.13;;;22.30;77.70;;;;;;5064082;28;20456;-37
2023/09/07 03:04:39;;;;;;;2.35;1.90;;;21.60;86.00;;;;;;5062234;28;20132;-36
2023/09/07 03:07:05;;;;;;;2.30;2.00;;;22.00;86.00;;;;;;5071993;28;20135;-39
2023/09/07 03:09:32;;;;;;;3.00;2.20;;;;;;;;;;5074435;28;20052;-36
2023/09/07 03:11:59;;;;;;;2.13;1.90;;;22.30;86.00;;;;;;5073526;28;20084;-40
2023/09/07 03:14:26;;;;;;;3.35;2.30;;;22.40;86.10;;;;;;5054833;28;20124;-36
2023/09/07 03:16:54;;;;;;;4.50;2.30;;;22.30;79.70;;;;;;5054340;28;20072;-37
2023/09/07 03:19:21;;;;;;;2.92;2.15;;;22.40;74.70;;;;;;5054033;28;20057;-37
2023/09/07 03:21:49;;;;;;;5.07;2.13;;;22.20;86.30;;;;;;5053852;28;20120;-37
2023/09/07 03:24:16;;;;;;;2.17;1.98;;;22.30;86.10;;;;;;5053660;28;20084;-39
2023/09/07 03:26:43;;;;;;;3.05;2.00;;;;;;;;;;5053887;28;20045;-36
2023/09/07 03:29:10;;;;;;;2.67;2.30;;;21.70;85.90;;;;;;5055148;28;20470;-39
2023/09/07 03:31:37;;;;;;;2.42;2.00;;;22.50;72.50;;;;;;5053821;28;20128;-36
2023/09/07 03:34:05;;;;;;;2.40;2.15;;;21.80;85.80;;;;;;5053529;28;20477;-38
2023/09/07 03:36:31;;;;;;;2.30;2.10;;;22.40;86.10;;;;;;5058835;28;20056;-38
2023/09/07 03:39:00;;;;;;;2.30;2.10;;;21.50;86.40;;;;;;5073765;28;20099;-38
2023/09/07 03:41:30;;;;;;;2.30;2.10;;;22.10;86.10;;;;;;5073409;28;20573;-37
2023/09/07 03:43:57;;;;;;;3.03;2.40;;;21.00;73.70;;;;;;5073459;28;20047;-38
2023/09/07 03:46:23;;;;;;;3.00;2.50;;;22.40;76.70;;;;;;5057661;28;20128;-37
2023/09/07 03:48:50;;;;;;;2.65;2.20;;;21.80;85.80;;;;;;5053599;28;20072;-38
2023/09/07 03:51:17;;;;;;;2.55;2.22;;;22.20;70.70;;;;;;5053322;28;20132;-40
2023/09/07 03:53:44;;;;;;;2.55;2.35;;;;;;;;;;5053044;28;20549;-36
2023/09/07 03:56:13;;;;;;;3.72;2.28;;;21.70;72.60;;;;;;5053548;28;20477;-40
2023/09/07 03:58:40;;;;;;;2.80;2.50;;;;;;;;;;5053208;28;20068;-36
2023/09/07 04:01:07;;;;;;;2.42;2.20;;;22.00;86.30;;;;;;5053248;28;20049;-39
2023/09/07 04:03:34;;;;;;;2.63;2.38;;;;;;;;;;5072259;28;20576;-36
2023/09/07 04:06:01;;;;;;;3.85;2.47;;;;;;;;;;5073118;28;20454;-38
2023/09/07 04:08:28;;;;;;;2.63;2.13;;;;;;;;;;5073103;28;20080;-38
2023/09/07 04:10:55;;;;;;;3.88;2.17;;;21.90;82.20;;;;;;5073219;28;20147;-38
2023/09/07 04:13:23;;;;;;;2.63;2.20;;;21.60;86.10;;;;;;5072605;28;20048;-40
2023/09/07 04:15:50;;;;;;;2.78;2.40;;;21.90;86.70;;;;;;5072970;28;20693;-36
2023/09/07 04:18:17;;;;;;;2.50;2.20;;;;;;;;;;5063624;28;20067;-39
2023/09/07 04:20:44;;;;;;;3.13;2.40;;;21.70;85.80;;;;;;5072479;28;20075;-36
2023/09/07 04:23:11;;;;;;;3.17;2.28;;;21.90;78.70;;;;;;5072400;28;20450;-38
2023/09/07 04:25:38;;;;;;;2.42;2.22;;;21.80;79.30;;;;;;5072589;28;20131;-38
2023/09/07 04:28:05;;;;;;;2.33;2.05;;;21.20;84.10;;;;;;5072591;28;20049;-36
2023/09/07 04:30:33;;;;;;;2.72;2.53;;;22.50;87.00;;;;;;5072541;28;20052;-36
2023/09/07 04:33:00;;;;;;;4.13;2.65;;;22.00;85.90;;;;;;5072367;28;20127;-39
2023/09/07 04:35:29;;;;;;;2.53;2.30;;;21.90;76.90;;;;;;5056470;28;20132;-38
2023/09/07 04:37:55;;;;;;;3.15;2.30;;;22.00;86.60;;;;;;5069665;28;20477;-36
2023/09/07 04:40:23;;;;;;;2.65;2.28;;;21.90;85.80;;;;;;5072424;28;20140;-39
2023/09/07 04:42:49;;;;;;;2.70;2.30;;;22.30;86.00;;;;;;5072069;28;20119;-36
2023/09/07 04:45:17;;;;;;;4.20;2.22;;;21.90;85.80;;;;;;5072340;28;20545;-39
2023/09/07 04:47:45;;;;;;;2.90;2.33;;;21.70;72.90;;;;;;5072200;28;20075;-35
2023/09/07 04:50:13;;;;;;;2.92;2.38;;;21.80;72.90;;;;;;5067337;28;20072;-36
2023/09/07 04:52:40;;;;;;;3.35;2.53;;;21.90;81.30;;;;;;5062165;28;20087;-38
2023/09/07 04:55:07;;;;;;;4.10;2.42;;;22.00;86.00;;;;;;5072368;28;20139;-38
2023/09/07 04:57:34;;;;;;;4.47;2.28;;;21.10;85.30;;;;;;5071786;28;20083;-39
2023/09/07 05:00:03;;;;;;;3.05;2.30;;;21.70;85.80;;;;;;5072252;28;20136;-38
2023/09/07 05:02:30;;;;;;;3.15;2.40;;;22.20;73.60;;;;;;5071753;28;20055;-34
2023/09/07 05:04:58;;;;;;;3.65;2.20;;;21.40;85.60;;;;;;5072048;28;20135;-37
2023/09/07 05:07:24;;;;;;;4.55;2.50;;;22.10;86.10;;;;;;5067451;28;20500;-38
2023/09/07 05:09:51;;;;;;;3.38;2.28;;;22.00;86.00;;;;;;5072036;28;20127;-37
2023/09/07 05:12:19;;;;;;;3.92;2.40;;;;;;;;;;5071242;28;20102;-36
2023/09/07 05:14:46;;;;;;;2.83;2.47;;;;;;;;;;5071883;28;20083;-37
2023/09/07 05:17:13;;;;;;;4.05;2.63;;;21.80;73.80;;;;;;5071888;28;20132;-39
2023/09/07 05:19:40;;;;;;;3.45;2.60;;;21.40;75.50;;;;;;5071819;28;20131;-39
2023/09/07 05:22:08;;;;;;;3.22;2.47;;;21.70;79.50;;;;;;5070197;28;20140;-36
2023/09/07 05:24:35;;;;;;;3.35;2.50;;;;;;;;;;5071647;28;20097;-37
2023/09/07 05:27:03;;;;;;;3.05;2.22;;;;;;;;;;5071751;28;20132;-36
2023/09/07 05:29:29;;;;;;;3.13;2.28;;;22.90;86.30;;;;;;5063198;28;20053;-39
2023/09/07 05:31:56;;;;;;;3.05;2.35;;;;;;;;;;5056944;28;20131;-36
2023/09/07 05:34:23;;;;;;;3.40;2.75;;;22.20;86.00;;;;;;5051383;28;20049;-37
2023/09/07 05:36:50;;;;;;;2.72;2.42;;;21.70;86.60;;;;;;5059565;28;20139;-39
2023/09/07 05:39:18;;;;;;;3.05;2.58;;;21.80;69.60;;;;;;5071705;28;20098;-37
2023/09/07 05:41:45;;;;;;;3.72;2.60;;;;;;;;;;5071439;28;20131;-35
2023/09/07 05:44:12;;;;;;;5.00;2.60;;;22.30;86.10;;;;;;5064864;28;20124;-39
2023/09/07 05:46:38;;;;;;;2.72;2.25;;;22.30;86.20;;;;;;5071729;28;20139;-39
2023/09/07 05:49:05;;;;;;;2.95;2.50;;;21.60;74.20;;;;;;5071782;28;20147;-36
2023/09/07 05:51:32;;;;;;;3.92;2.53;;;22.00;86.30;;;;;;5071681;28;20135;-37
2023/09/07 05:53:59;;;;;;;2.88;2.55;;;21.50;86.20;;;;;;5068517;28;20116;-35
2023/09/07 05:56:27;;;;;;;2.95;2.50;;;20.90;83.80;;;;;;5069262;28;20132;-35
2023/09/07 05:58:54;;;;;;;4.18;2.80;;;22.10;77.90;;;;;;5070638;28;20124;-35
2023/09/07 06:01:20;;;;;;;2.95;2.65;;;21.80;85.80;;;;;;5057691;28;20227;-38
2023/09/07 06:03:47;;;;;;;2.60;2.33;;;22.10;86.00;;;;;;5065957;28;20128;-39
2023/09/07 06:06:14;;;;;;;3.20;2.90;;;21.50;78.60;;;;;;5051720;28;20114;-35
2023/09/07 06:08:40;;;;;;;2.88;2.58;;;21.20;85.50;;;;;;5051615;28;20132;-34
2023/09/07 06:11:07;;;;;;;2.58;2.38;;;21.60;85.80;;;;;;5051265;28;20484;-39
2023/09/07 06:13:35;;;;;;;3.97;2.50;;;21.50;71.80;;;;;;5051079;28;20128;-36
2023/09/07 06:16:02;;;;;;;3.65;2.78;;;;;;;;;;5068160;28;20454;-35
2023/09/07 06:18:29;;;;;;;3.63;2.60;;;;;;;;;;5071470;28;20048;-36
2023/09/07 06:20:56;;;;;;;4.00;2.58;;;21.50;80.20;;;;;;5071110;28;20135;-33
2023/09/07 06:23:23;;;;;;;3.83;2.90;;;21.70;85.80;;;;;;5071320;28;20053;-38
2023/09/07 06:25:50;;;;;;;3.60;2.33;;;21.30;85.90;;;;;;5074926;28;20620;-37
2023/09/07 06:28:17;;;;;;;4.20;2.67;;;;;;;;;;5075327;28;20052;-35
2023/09/07 06:30:45;;;;;;;3.15;2.60;;;20.70;85.30;;;;;;5068939;28;20124;-37
2023/09/07 06:33:12;;;;;;;2.83;2.53;;;21.40;86.20;;;;;;5054767;28;20447;-34
2023/09/07 06:35:39;;;;;;;2.50;2.30;;;21.80;70.90;;;;;;5054943;28;20056;-35
2023/09/07 06:38:05;;;;;;;4.50;2.67;;;21.40;85.80;;;;;;5073243;28;20127;-34
2023/09/07 06:40:33;;;;;;;7.18;2.70;;;;;;;;;;5074777;28;20135;-36
2023/09/07 06:43:00;;;;;;;2.90;2.53;;;21.80;86.00;;;;;;5074444;28;20136;-36
2023/09/07 06:45:27;;;;;;;3.50;2.95;;;;;;;;;;5073847;28;20079;-34
2023/09/07 06:47:55;;;;;;;3.35;2.72;;;21.80;86.00;;;;;;5058825;28;20490;-35
2023/09/07 06:50:22;;;;;;;3.75;2.50;;;21.80;72.20;;;;;;5057964;28;20128;-36
2023/09/07 06:52:49;;;;;;;3.10;2.53;;;;;;;;;;5074083;28;20123;-36
2023/09/07 06:55:16;;;;;;;2.65;2.38;;;21.60;86.10;;;;;;5074655;28;20091;-37
2023/09/07 06:57:42;;;;;;;2.90;2.60;;;21.40;86.70;;;;;;5074731;28;20088;-38
2023/09/07 07:00:11;;;;;;;3.70;2.70;;;22.10;71.00;;;;;;5074475;28;20127;-34
2023/09/07 07:02:38;;;;;;;3.72;2.70;;;21.50;77.10;;;;;;5073718;28;20102;-36
2023/09/07 07:05:08;;;;;;;3.58;2.83;;;21.90;86.10;;;;;;5066701;28;20561;-38
2023/09/07 07:07:35;;;;;;;3.22;2.65;;;;;;;;;;5062861;28;20048;-35
2023/09/07 07:10:03;;;;;;;3.38;2.58;;;22.70;82.80;;;;;;5066993;28;20406;-36
2023/09/07 07:12:30;;;;;;;3.60;2.60;;;;;;;;;;5074253;28;20053;-32
2023/09/07 07:14:57;;;;;;;4.88;2.65;;;21.20;86.70;;;;;;5073910;28;20394;-35
2023/09/07 07:17:24;;;;;;;3.30;2.80;;;;;;;;;;5074496;28;20131;-34
2023/09/07 07:19:51;;;;;;;2.60;2.30;;;21.20;85.80;;;;;;5072937;28;20127;-30
2023/09/07 07:22:19;;;;;;;3.00;2.67;;;21.50;86.30;;;;;;5074168;28;20131;-31
2023/09/07 07:24:46;;;;;;;4.05;2.70;;;;;;;;;;5069588;28;20536;-33
2023/09/07 07:27:13;;;;;;;3.28;2.55;;;21.70;86.20;;;;;;5063759;28;20562;-32
2023/09/07 07:29:40;;;;;;;3.60;2.53;;;21.50;86.80;;;;;;5054079;28;20124;-36
2023/09/07 07:32:06;;;;;;;2.70;2.45;;;21.60;77.90;;;;;;5053691;28;20577;-35
2023/09/07 07:34:33;;;;;;;3.30;2.67;;;21.70;86.30;;;;;;5053349;28;20128;-36
2023/09/07 07:37:00;;;;;;;3.72;2.53;;;;;;;;;;5063338;28;20044;-36
2023/09/07 07:39:28;;;;;;;3.40;2.42;;;22.60;87.30;;;;;;5073846;28;20135;-35
2023/09/07 07:41:57;;;;;;;4.65;2.60;;;;;;;;;;5073933;28;20468;-34
2023/09/07 07:44:23;;;;;;;2.70;2.45;;;21.20;86.60;;;;;;5072864;28;20044;-37
2023/09/07 07:46:50;;;;;;;2.50;2.30;;;21.70;86.80;;;;;;5073579;28;20135;-40
2023/09/07 07:49:17;;;;;;;3.55;2.45;;;21.80;74.70;;;;;;5073618;28;20127;-36
2023/09/07 07:51:44;;;;;;;2.60;2.40;;;;;;;;;;5073303;28;20131;-40
2023/09/07 07:54:11;;;;;;;3.22;2.25;;;;;;;;;;5062244;28;20127;-34
2023/09/07 07:56:39;;;;;;;3.70;2.40;;;21.70;86.10;;;;;;5064124;28;20124;-37
2023/09/07 07:59:06;;;;;;;2.40;2.17;;;22.50;86.70;;;;;;5062590;28;20127;-38
2023/09/07 08:01:33;;;;;;;2.70;2.25;;;;;;;;;;5061229;28;20087;-34
2023/09/07 08:04:00;;;;;;;3.05;2.72;;;21.10;86.30;;;;;;5052798;28;20045;-38
2023/09/07 08:06:27;;;;;;;3.65;2.33;;;21.10;86.80;;;;;;5053047;28;20558;-40
2023/09/07 08:08:53;;;;;;;3.15;2.65;;;21.60;72.20;;;;;;5052638;28;20073;-32
2023/09/07 08:11:21;;;;;;;3.60;2.40;;;21.40;86.40;;;;;;5053139;28;20056;-33
2023/09/07 08:13:49;;;;;;;3.22;2.30;;;22.00;71.40;;;;;;5052611;28;20045;-33
2023/09/07 08:16:17;;;;;;;2.78;2.30;;;;;;;;;;5053019;28;20079;-31
2023/09/07 08:18:45;;;;;;;3.10;2.60;;;;;;;;;;5052791;28;20417;-33
2023/09/07 08:21:12;;;;;;;3.45;2.67;;;;;;;;;;5053166;28;20048;-33
2023/09/07 08:23:38;;;;;;;2.75;2.50;;;21.40;87.00;;;;;;5052961;28;20142;-31
2023/09/07 08:26:05;;;;;;;2.53;2.33;;;22.00;85.90;;;;;;5052697;28;20133;-31
2023/09/07 08:28:32;;;;;;;3.08;2.63;;;;;;;;;;5052895;28;20052;-32
2023/09/07 08:31:01;;;;;;;2.70;2.30;;;21.40;86.20;;;;;;5053051;28;20088;-31
2023/09/07 08:33:28;;;;;;;2.80;2.30;;;21.60;86.40;;;;;;5060745;28;20041;-31
2023/09/07 08:35:55;;;;;;;4.07;2.40;;;21.40;74.30;;;;;;5072247;28;20053;-32
2023/09/07 08:38:25;;;;;;;4.35;2.47;;;;;;;;;;5069732;28;20186;-34
2023/09/07 08:40:54;;;;;;;2.83;2.42;;;21.80;70.20;;;;;;5061743;28;20041;-34
2023/09/07 08:43:21;;;;;;;2.85;2.50;;;;;;;;;;5071532;28;20051;-32
2023/09/07 08:45:51;;;;;;;4.40;2.45;;;21.50;86.30;;;;;;5059672;28;20124;-30
2023/09/07 08:48:20;;;;;;;2.30;2.10;;;21.70;86.30;;;;;;5059549;28;20068;-38
2023/09/07 08:50:49;;;;;;;2.65;2.33;;;;;;;;;;5059335;28;20508;-31
2023/09/07 08:53:18;;;;;;;2.97;2.47;;;21.80;70.10;;;;;;5060663;28;20052;-34
2023/09/07 08:55:44;;;;;;;5.93;2.35;;;22.40;71.10;;;;;;5059621;28;20481;-37
2023/09/07 08:58:11;;;;;;;4.05;2.40;;;22.10;86.90;;;;;;5058598;28;20132;-36
2023/09/07 09:00:42;;;;;;;2.90;2.42;;;;;;;;;;5059040;28;20045;-37
2023/09/07 09:03:09;;;;;;;3.00;2.50;;;22.30;81.90;;;;;;5061575;28;20059;-34
2023/09/07 09:05:39;;;;;;;2.58;2.20;;;22.00;86.60;;;;;;5062703;28;20128;-39
2023/09/07 09:08:06;;;;;;;3.38;2.28;;;22.00;86.50;;;;;;5051479;28;20557;-35
2023/09/07 09:10:32;;;;;;;2.80;2.50;;;22.60;86.90;;;;;;5051983;28;20128;-38
2023/09/07 09:13:00;;;;;;;4.60;2.53;;;;;;;;;;5051407;28;20128;-33
2023/09/07 09:15:26;;;;;;;4.40;2.60;;;22.20;87.50;;;;;;5051909;28;20083;-36
2023/09/07 09:17:54;;;;;;;4.20;2.65;;;;;;;;;;5051535;28;20406;-33
2023/09/07 09:20:23;;;;;;;2.58;2.38;;;22.00;70.30;;;;;;5051532;28;20045;-38
2023/09/07 09:22:52;;;;;;;3.50;2.58;;;21.90;70.30;;;;;;5051234;28;20060;-34
2023/09/07 09:25:18;;;;;;;3.17;2.60;;;22.20;87.00;;;;;;5051715;28;20076;-37
2023/09/07 09:27:45;;;;;;;3.03;2.55;;;22.50;87.60;;;;;;5051768;28;20122;-39
2023/09/07 09:30:15;;;;;;;2.83;2.50;;;22.00;72.40;;;;;;5051905;28;20060;-36
2023/09/07 09:32:42;;;;;;;6.40;2.60;;;21.60;86.30;;;;;;5051606;28;20044;-36
2023/09/07 09:35:09;;;;;;;3.10;2.40;;;22.20;72.00;;;;;;5051613;28;20051;-36
2023/09/07 09:37:36;;;;;;;3.88;2.65;;;;;;;;;;5066019;28;20048;-32
2023/09/07 09:40:10;;;;;;;3.47;2.40;;;22.10;86.90;;;;;;5071743;28;20502;-35
2023/09/07 09:42:38;;;;;;;2.83;2.42;;;21.90;80.00;;;;;;5071900;28;20124;-36
2023/09/07 09:45:06;;;;;;;2.60;2.40;;;22.00;86.90;;;;;;5052736;28;20052;-36
2023/09/07 09:47:33;;;;;;;3.08;2.50;;;22.50;87.60;;;;;;5051770;28;20124;-34
2023/09/07 09:49:59;;;;;;;3.65;2.30;;;21.80;86.70;;;;;;5051440;28;20139;-37
2023/09/07 09:52:26;;;;;;;3.00;2.70;;;22.20;86.60;;;;;;5051398;28;20124;-35
2023/09/07 09:54:53;;;;;;;3.08;2.35;;;21.80;87.20;;;;;;5051534;28;20495;-38
2023/09/07 09:57:21;;;;;;;3.83;2.70;;;21.60;86.30;;;;;;5051995;28;20131;-36
2023/09/07 09:59:48;;;;;;;3.03;2.40;;;22.80;87.30;;;;;;5055723;28;20080;-38
2023/09/07 10:02:15;;;;;;;3.28;2.47;;;21.70;77.80;;;;;;5056144;28;20140;-33
2023/09/07 10:04:42;;;;;;;3.17;2.33;;;21.80;86.30;;;;;;5055425;28;20491;-38
2023/09/07 10:07:09;;;;;;;3.53;2.60;;;22.00;72.30;;;;;;5055457;28;20157;-32
2023/09/07 10:09:36;;;;;;;3.20;2.50;;;22.00;87.10;;;;;;5055482;28;20562;-37
2023/09/07 10:12:07;;;;;;;3.63;2.40;;;22.00;70.10;;;;;;5063813;28;20079;-35
2023/09/07 10:14:42;;;;;;;4.32;2.78;;;22.00;87.10;;;;;;5059119;28;20053;-38
2023/09/07 10:17:09;;;;;;;2.95;2.40;;;;;;;;;;5059305;28;20090;-36
2023/09/07 10:19:38;;;;;;;4.35;2.47;;;;;;;;;;5075666;28;20055;-37
2023/09/07 10:22:05;;;;;;;3.30;2.70;;;;;;;;;;5075414;28;20075;-36
2023/09/07 10:24:35;;;;;;;3.72;2.47;;;21.00;75.10;;;;;;5073854;28;20072;-35
2023/09/07 10:27:04;;;;;;;3.58;2.50;;;21.20;83.20;;;;;;5065071;28;20098;-37
2023/09/07 10:29:43;;;;;;;3.40;2.42;;;21.90;86.10;;;;;;5063604;28;20451;-38
2023/09/07 10:32:12;;;;;;;4.05;2.60;;;;;;;;;;5061783;28;20067;-36
2023/09/07 10:34:42;;;;;;;5.05;2.53;;;21.80;86.00;;;;;;5063146;28;20499;-38
2023/09/07 10:37:12;;;;;;;4.82;2.80;;;21.60;86.60;;;;;;5064504;28;20091;-35
2023/09/07 10:39:39;;;;;;;2.78;2.40;;;22.60;86.40;;;;;;5065001;28;20044;-36
2023/09/07 10:42:05;;;;;;;4.75;2.78;;;21.60;78.00;;;;;;5065165;28;20569;-36
2023/09/07 10:44:32;;;;;;;3.42;2.38;;;22.60;73.70;;;;;;5065320;28;20161;-35
2023/09/07 10:47:00;;;;;;;4.32;2.72;;;22.10;70.00;;;;;;5065051;28;20466;-34
2023/09/07 10:49:27;;;;;;;2.80;2.30;;;;;;;;;;5063006;28;20120;-37
2023/09/07 10:51:54;;;;;;;4.50;2.90;;;;;;;;;;5065861;28;20132;-35
2023/09/07 10:54:24;;;;;;;3.75;2.50;;;22.10;69.90;;;;;;5074081;28;20049;-37
2023/09/07 10:56:51;;;;;;;5.07;2.60;;;22.20;70.00;;;;;;5074205;28;20131;-35
2023/09/07 10:59:17;;;;;;;4.55;3.03;;;22.30;86.90;;;;;;5070822;28;20120;-38
2023/09/07 11:01:45;;;;;;;2.97;2.42;;;22.30;86.50;;;;;;5066658;28;20563;-36
2023/09/07 11:04:13;;;;;;;3.42;2.50;;;21.10;85.40;;;;;;5074236;28;20127;-36
2023/09/07 11:06:40;;;;;;;4.63;3.42;;;21.10;85.70;;;;;;5073633;28;20076;-37
2023/09/07 11:09:08;;;;;;;7.22;6.07;;;;;;;;;;5068287;28;20124;-33
2023/09/07 11:11:35;;;;;;;12.55;9.60;;;22.40;72.00;;;;;;5074210;28;20055;-36
2023/09/07 11:14:03;;;;;;;29.17;21.63;;;23.10;86.40;;;;;;5074239;28;20131;-37
2023/09/07 11:16:30;;;;;;;29.10;20.88;;;21.50;85.70;;;;;;5074362;28;20045;-31
2023/09/07 11:18:56;;;;;;;35.65;22.67;;;22.60;86.30;;;;;;5074083;28;20132;-30
2023/09/07 11:21:25;;;;;;;34.20;24.83;;;22.30;70.00;;;;;;5064046;28;20124;-36
2023/09/07 11:23:52;;;;;;;38.10;26.95;;;22.50;86.10;;;;;;5053047;28;20788;-31
2023/09/07 11:26:19;;;;;;;40.17;26.33;;;;;;;;;;5054282;28;20481;-34
2023/09/07 11:28:47;;;;;;;34.70;24.17;;;22.30;70.00;;;;;;5053773;28;20147;-36
2023/09/07 11:31:14;;;;;;;42.55;24.05;;;21.80;73.90;;;;;;5053606;28;20482;-35
2023/09/07 11:33:42;;;;;;;34.35;23.00;;;22.90;87.00;;;;;;5073341;28;20063;-36
2023/09/07 11:36:08;;;;;;;31.25;21.23;;;22.70;86.00;;;;;;5073280;28;20123;-38
2023/09/07 11:38:42;;;;;;;30.05;20.80;;;23.50;86.60;;;;;;5057555;28;20132;-35
2023/09/07 11:41:10;;;;;;;29.25;20.38;;;;;;;;;;5053537;28;20132;-39
2023/09/07 11:43:37;;;;;;;29.83;18.38;;;23.50;86.60;;;;;;5061435;28;20123;-36
2023/09/07 11:46:04;;;;;;;29.58;18.52;;;;;;;;;;5073272;28;20493;-36
2023/09/07 11:48:32;;;;;;;28.00;16.83;;;22.40;86.50;;;;;;5073700;28;20052;-35
2023/09/07 11:50:59;;;;;;;26.67;16.67;;;;;;;;;;5073198;28;20056;-35
2023/09/07 11:53:26;;;;;;;24.10;14.93;;;;;;;;;;5066477;28;20097;-33
2023/09/07 11:55:54;;;;;;;22.02;15.23;;;22.50;70.10;;;;;;5053389;28;20124;-35
2023/09/07 11:58:21;;;;;;;21.77;13.23;;;22.40;86.80;;;;;;5053290;28;20061;-39
2023/09/07 12:00:49;;;;;;;21.20;12.77;;;22.80;86.20;;;;;;5061203;28;20583;-36
2023/09/07 12:03:14;;;;;;;19.00;12.43;;;22.40;86.00;;;;;;5058089;28;20049;-37
2023/09/07 12:05:44;;;;;;;17.70;11.75;;;;;;;;;;5052982;28;20561;-36
2023/09/07 12:08:11;;;;;;;20.38;11.68;;;;;;;;;;5058618;28;20458;-34
2023/09/07 12:10:37;;;;;;;16.70;10.20;;;22.40;86.80;;;;;;5061748;28;20124;-39
2023/09/07 12:13:06;;;;;;;14.75;10.32;;;22.80;87.10;;;;;;5067800;28;20123;-35
2023/09/07 12:15:32;;;;;;;13.73;10.13;;;;;;;;;;5071132;28;20045;-35
2023/09/07 12:17:58;;;;;;;17.98;9.43;;;22.60;86.30;;;;;;5072841;28;20040;-37
2023/09/07 12:20:25;;;;;;;14.10;8.80;;;22.40;77.50;;;;;;5072966;28;20135;-37
2023/09/07 12:22:52;;;;;;;15.18;9.07;;;22.70;86.00;;;;;;5066061;28;20128;-36
2023/09/07 12:25:19;;;;;;;13.55;8.30;;;;;;;;;;5072626;28;20465;-36
2023/09/07 12:27:46;;;;;;;11.50;8.13;;;22.30;86.40;;;;;;5055718;28;20132;-37
2023/09/07 12:30:18;;;;;;;12.00;7.47;;;22.60;70.00;;;;;;5073029;28;20040;-34
2023/09/07 12:32:45;;;;;;;11.50;7.05;;;21.70;85.80;;;;;;5072502;28;20056;-36
2023/09/07 12:35:12;;;;;;;12.68;8.18;;;;;;;;;;5068236;28;20076;-35
2023/09/07 12:37:38;;;;;;;12.48;6.90;;;22.40;86.10;;;;;;5071044;28;20131;-36
2023/09/07 12:40:11;;;;;;;10.18;6.68;;;22.50;85.80;;;;;;5072471;28;20131;-37
2023/09/07 12:42:46;;;;;;;11.23;7.45;;;22.50;84.40;;;;;;5089107;27;20374;-30
2023/09/07 12:45:14;;;;;;;11.40;6.63;;;23.20;86.00;;;;;;5089376;28;20083;-31
2023/09/07 12:47:40;;;;;;;7.72;5.78;;;22.10;85.30;;;;;;5089319;28;20501;-30
2023/09/07 12:50:07;;;;;;;8.73;6.15;;;21.90;86.10;;;;;;5089586;28;20134;-31
2023/09/07 12:52:36;;;;;;;10.07;6.10;;;22.80;76.00;;;;;;5089000;28;20048;-31
2023/09/07 12:55:03;;;;;;;9.75;6.07;;;22.60;81.50;;;;;;5089003;28;20052;-30
2023/09/07 12:57:30;;;;;;;8.43;5.63;;;22.50;85.50;;;;;;5089095;28;20090;-31
2023/09/07 12:59:58;;;;;;;8.05;4.82;;;23.50;72.30;;;;;;5072095;28;20057;-30
2023/09/07 13:02:25;;;;;;;9.10;5.38;;;;;;;;;;5068799;28;20479;-31
2023/09/07 13:04:51;;;;;;;7.65;5.28;;;23.10;86.20;;;;;;5069199;28;20469;-32
2023/09/07 13:07:18;;;;;;;6.82;5.00;;;22.90;76.30;;;;;;5068796;28;20127;-31